createdAt,value
2019-05-02T00:01:36.155Z,18.40
2019-05-02T00:04:05.712Z,18.43
2019-05-02T00:06:38.198Z,19.20
2019-05-02T00:09:09.281Z,19.13
2019-05-02T00:11:40.130Z,20.67
2019-05-02T00:14:11.638Z,19.80
2019-05-02T00:16:45.233Z,20.27
2019-05-02T00:19:15.382Z,20.30
2019-05-02T00:21:44.631Z,19.73
2019-05-02T00:24:14.303Z,19.73
2019-05-02T00:26:43.648Z,19.30
2019-05-02T00:29:12.881Z,19.10
2019-05-02T00:31:46.850Z,18.43
2019-05-02T00:34:13.057Z,19.20
2019-05-02T00:36:42.714Z,19.10
2019-05-02T00:39:13.839Z,19.87
2019-05-02T00:41:43.662Z,18.53
2019-05-02T00:44:13.207Z,20.13
2019-05-02T00:46:42.440Z,19.70
2019-05-02T00:49:14.812Z,19.23
2019-05-02T00:51:44.028Z,18.40
2019-05-02T00:54:13.353Z,19.03
2019-05-02T00:56:44.162Z,18.73
2019-05-02T00:59:13.523Z,19.87
2019-05-02T01:01:50.415Z,18.57
2019-05-02T01:04:33.773Z,19.20
2019-05-02T01:07:04.863Z,18.03
2019-05-02T01:09:35.399Z,18.00
2019-05-02T01:12:08.474Z,17.87
2019-05-02T01:14:36.422Z,18.30
2019-05-02T01:17:06.081Z,17.43
2019-05-02T01:19:35.397Z,17.57
2019-05-02T01:22:04.749Z,17.67
2019-05-02T01:24:39.149Z,17.67
2019-05-02T01:27:29.652Z,18.43
2019-05-02T01:30:20.549Z,18.37
2019-05-02T01:33:08.719Z,18.03
2019-05-02T01:36:01.774Z,17.27
2019-05-02T01:38:38.862Z,17.37
2019-05-02T01:41:10.950Z,17.40
2019-05-02T01:43:44.235Z,17.80
2019-05-02T01:46:17.144Z,18.87
2019-05-02T01:48:45.660Z,18.33
2019-05-02T01:51:15.419Z,18.50
2019-05-02T01:53:53.018Z,19.37
2019-05-02T01:56:22.572Z,18.80
2019-05-02T01:58:52.957Z,18.60
2019-05-02T02:01:23.368Z,18.03
2019-05-02T02:03:52.731Z,18.37
2019-05-02T02:06:21.978Z,18.53
2019-05-02T02:08:51.233Z,17.93
2019-05-02T02:11:20.734Z,18.10
2019-05-02T02:13:49.968Z,19.33
2019-05-02T02:16:21.229Z,17.87
2019-05-02T02:19:12.282Z,17.63
2019-05-02T02:21:52.045Z,18.10
2019-05-02T02:24:28.944Z,17.03
2019-05-02T02:26:58.201Z,18.07
2019-05-02T02:29:27.699Z,18.33
2019-05-02T02:31:56.968Z,18.23
2019-05-02T02:34:32.304Z,17.10
2019-05-02T02:36:57.674Z,17.23
2019-05-02T02:39:26.928Z,17.73
2019-05-02T02:41:56.455Z,17.03
2019-05-02T02:44:41.954Z,18.23
2019-05-02T02:47:18.834Z,16.73
2019-05-02T02:49:42.627Z,18.27
2019-05-02T02:52:11.856Z,17.33
2019-05-02T02:54:43.459Z,17.33
2019-05-02T02:57:20.071Z,17.33
2019-05-02T02:59:42.989Z,16.47
2019-05-02T03:02:12.542Z,16.83
2019-05-02T03:04:45.967Z,16.93
2019-05-02T03:07:24.683Z,17.70
2019-05-02T03:09:45.857Z,17.97
2019-05-02T03:12:36.105Z,18.30
2019-05-02T03:15:06.108Z,18.20
2019-05-02T03:17:35.454Z,17.43
2019-05-02T03:20:05.581Z,17.57
2019-05-02T03:22:41.489Z,18.00
2019-05-02T03:25:05.985Z,17.87
2019-05-02T03:27:37.515Z,18.03
2019-05-02T03:30:06.516Z,18.13
2019-05-02T03:32:36.664Z,18.10
2019-05-02T03:35:06.180Z,18.60
2019-05-02T03:37:35.533Z,19.00
2019-05-02T03:40:05.053Z,17.87
2019-05-02T03:42:43.687Z,19.63
2019-05-02T03:45:05.866Z,17.80
2019-05-02T03:47:37.023Z,17.90
2019-05-02T03:50:09.465Z,19.17
2019-05-02T03:52:43.993Z,18.17
2019-05-02T03:55:08.687Z,19.73
2019-05-02T03:57:41.971Z,20.40
2019-05-02T04:00:13.567Z,20.53
2019-05-02T04:02:41.231Z,20.90
2019-05-02T04:05:11.328Z,20.77
2019-05-02T04:07:42.355Z,21.47
2019-05-02T04:10:20.187Z,21.40
2019-05-02T04:12:46.439Z,20.90
2019-05-02T04:15:15.683Z,20.07
2019-05-02T04:17:45.915Z,19.87
2019-05-02T04:20:15.171Z,19.20
2019-05-02T04:22:48.938Z,19.33
2019-05-02T04:25:15.792Z,19.40
2019-05-02T04:27:45.086Z,19.73
2019-05-02T04:30:14.575Z,19.37
2019-05-02T04:32:49.880Z,19.47
2019-05-02T04:35:14.884Z,18.93
2019-05-02T04:37:44.114Z,17.93
2019-05-02T04:40:13.399Z,17.40
2019-05-02T04:42:42.701Z,18.30
2019-05-02T04:45:26.506Z,17.97
2019-05-02T04:47:54.759Z,18.40
2019-05-02T04:50:25.096Z,19.50
2019-05-02T04:52:53.919Z,20.23
2019-05-02T04:55:28.977Z,20.17
2019-05-02T04:57:53.391Z,18.10
2019-05-02T05:00:29.045Z,21.17
2019-05-02T05:02:58.515Z,20.47
2019-05-02T05:05:31.060Z,19.13
2019-05-02T05:07:58.747Z,20.53
2019-05-02T05:10:27.978Z,19.57
2019-05-02T05:12:57.230Z,18.73
2019-05-02T05:15:37.158Z,18.90
2019-05-02T05:17:58.231Z,18.23
2019-05-02T05:20:28.021Z,18.60
2019-05-02T05:22:58.502Z,18.40
2019-05-02T05:25:35.133Z,18.83
2019-05-02T05:28:06.063Z,19.40
2019-05-02T05:30:37.731Z,19.43
2019-05-02T05:33:09.932Z,19.77
2019-05-02T05:35:38.520Z,20.37
2019-05-02T05:38:07.969Z,21.63
2019-05-02T05:40:39.986Z,21.60
2019-05-02T05:43:15.648Z,21.27
2019-05-02T05:45:53.470Z,21.43
2019-05-02T05:48:14.014Z,22.67
2019-05-02T05:50:43.291Z,23.53
2019-05-02T05:53:17.112Z,25.73
2019-05-02T05:55:43.808Z,25.67
2019-05-02T05:58:15.774Z,26.93
2019-05-02T06:00:45.865Z,28.07
2019-05-02T06:03:17.947Z,28.07
2019-05-02T06:05:47.781Z,28.07
2019-05-02T06:08:18.367Z,28.30
2019-05-02T06:10:49.414Z,27.27
2019-05-02T06:13:18.640Z,26.60
2019-05-02T06:16:01.279Z,26.53
2019-05-02T06:18:18.911Z,27.00
2019-05-02T06:20:48.600Z,25.13
2019-05-02T06:23:18.120Z,24.57
2019-05-02T06:25:47.393Z,25.73
2019-05-02T06:28:16.615Z,25.27
2019-05-02T06:30:45.991Z,25.97
2019-05-02T06:33:15.281Z,25.80
2019-05-02T06:35:44.552Z,26.70
2019-05-02T06:38:13.791Z,24.70
2019-05-02T06:40:44.815Z,25.00
2019-05-02T06:43:14.170Z,24.17
2019-05-02T06:45:44.655Z,23.57
2019-05-02T06:48:17.610Z,24.50
2019-05-02T06:50:46.836Z,24.73
2019-05-02T06:53:16.152Z,23.70
2019-05-02T06:55:45.398Z,23.13
2019-05-02T06:58:14.621Z,23.23
2019-05-02T07:00:56.781Z,24.23
2019-05-02T07:03:15.616Z,24.67
2019-05-02T07:05:44.880Z,23.77
2019-05-02T07:08:14.345Z,23.53
2019-05-02T07:10:45.101Z,21.93
2019-05-02T07:13:15.101Z,23.33
2019-05-02T07:15:59.112Z,22.50
2019-05-02T07:18:30.479Z,21.83
2019-05-02T07:21:00.073Z,21.60
2019-05-02T07:23:30.841Z,20.33
2019-05-02T07:26:00.543Z,20.57
2019-05-02T07:28:31.992Z,20.57
2019-05-02T07:31:01.549Z,19.30
2019-05-02T07:33:32.413Z,17.63
2019-05-02T07:36:02.645Z,17.90
2019-05-02T07:38:31.888Z,17.23
2019-05-02T07:41:01.210Z,16.70
2019-05-02T07:43:31.585Z,17.85
2019-05-02T07:46:01.328Z,17.80
2019-05-02T07:48:30.552Z,16.60
2019-05-02T07:50:59.812Z,17.40
2019-05-02T07:53:29.034Z,17.48
2019-05-02T07:55:59.282Z,17.67
2019-05-02T07:58:28.541Z,17.20
2019-05-02T08:00:57.776Z,17.48
2019-05-02T08:03:29.329Z,16.02
2019-05-02T08:05:58.565Z,17.77
2019-05-02T08:08:31.645Z,17.40
2019-05-02T08:11:02.894Z,17.73
2019-05-02T08:13:31.665Z,16.37
2019-05-02T08:16:00.997Z,16.48
2019-05-02T08:18:31.601Z,17.02
2019-05-02T08:21:01.051Z,18.90
2019-05-02T08:23:30.321Z,18.10
2019-05-02T08:25:59.561Z,16.20
2019-05-02T08:28:37.461Z,18.30
2019-05-02T08:31:06.709Z,17.48
2019-05-02T08:33:36.025Z,16.90
2019-05-02T08:36:05.279Z,15.58
2019-05-02T08:38:34.873Z,17.82
2019-05-02T08:41:04.937Z,18.57
2019-05-02T08:43:35.508Z,18.73
2019-05-02T08:46:09.449Z,18.00
2019-05-02T08:48:36.447Z,18.12
2019-05-02T08:51:07.300Z,17.57
2019-05-02T08:53:36.551Z,17.95
2019-05-02T08:56:05.784Z,17.02
2019-05-02T08:58:35.059Z,16.95
2019-05-02T09:01:09.129Z,17.20
2019-05-02T09:03:54.769Z,17.67
2019-05-02T09:06:07.273Z,17.20
2019-05-02T09:08:36.547Z,18.05
2019-05-02T09:11:05.901Z,16.90
2019-05-02T09:13:37.276Z,15.83
2019-05-02T09:16:06.381Z,17.20
2019-05-02T09:18:39.618Z,17.02
2019-05-02T09:21:06.906Z,16.80
2019-05-02T09:23:37.228Z,15.05
2019-05-02T09:26:09.139Z,17.95
2019-05-02T09:28:38.414Z,16.85
2019-05-02T09:31:07.648Z,16.37
2019-05-02T09:33:42.474Z,16.23
2019-05-02T09:36:09.413Z,15.45
2019-05-02T09:38:38.987Z,14.30
2019-05-02T09:41:17.027Z,16.77
2019-05-02T09:43:40.034Z,15.98
2019-05-02T09:46:12.802Z,16.45
2019-05-02T09:48:42.507Z,15.90
2019-05-02T09:51:16.987Z,16.97
2019-05-02T09:53:43.150Z,16.37
2019-05-02T09:56:16.903Z,15.68
2019-05-02T09:58:49.289Z,15.65
2019-05-02T10:01:28.530Z,16.37
2019-05-02T10:03:58.127Z,15.88
2019-05-02T10:06:27.357Z,15.70
2019-05-02T10:08:56.703Z,13.72
2019-05-02T10:11:27.257Z,13.00
2019-05-02T10:13:56.534Z,14.85
2019-05-02T10:16:27.268Z,14.80
2019-05-02T10:19:00.226Z,15.65
2019-05-02T10:21:28.522Z,14.33
2019-05-02T10:24:01.851Z,13.80
2019-05-02T10:26:33.033Z,13.83
2019-05-02T10:29:02.708Z,14.18
2019-05-02T10:31:35.949Z,16.15
2019-05-02T10:34:02.964Z,15.15
2019-05-02T10:36:35.355Z,14.25
2019-05-02T10:39:06.769Z,15.08
2019-05-02T10:41:39.489Z,15.20
2019-05-02T10:44:07.832Z,14.40
2019-05-02T10:47:02.873Z,13.70
2019-05-02T10:49:47.311Z,14.70
2019-05-02T10:52:21.586Z,14.53
2019-05-02T10:54:49.817Z,13.00
2019-05-02T10:57:21.934Z,12.35
2019-05-02T10:59:52.530Z,12.47
2019-05-02T11:02:56.240Z,13.05
2019-05-02T11:05:26.833Z,13.38
2019-05-02T11:07:56.994Z,12.88
2019-05-02T11:10:27.083Z,13.20
2019-05-02T11:13:07.504Z,9.75
2019-05-02T11:16:12.387Z,9.23
2019-05-02T11:19:13.278Z,5.78
2019-05-02T11:21:55.265Z,6.33
2019-05-02T11:24:14.824Z,5.78
2019-05-02T11:26:44.409Z,5.28
2019-05-02T11:29:14.479Z,5.60
2019-05-02T11:31:43.727Z,5.22
2019-05-02T11:34:13.072Z,6.05
2019-05-02T11:36:42.347Z,6.35
2019-05-02T11:39:20.730Z,6.00
2019-05-02T11:41:43.911Z,5.83
2019-05-02T11:44:13.437Z,6.33
2019-05-02T11:46:46.931Z,6.58
2019-05-02T11:49:14.407Z,6.37
2019-05-02T11:51:47.178Z,6.67
2019-05-02T11:54:15.188Z,5.70
2019-05-02T11:56:48.912Z,6.60
2019-05-02T11:59:15.747Z,6.65
2019-05-02T12:01:59.114Z,7.12
2019-05-02T12:04:21.517Z,7.77
2019-05-02T12:07:01.138Z,7.93
2019-05-02T12:09:22.304Z,10.30
2019-05-02T12:11:56.416Z,7.93
2019-05-02T12:14:27.469Z,8.37
2019-05-02T12:16:55.189Z,9.30
2019-05-02T12:19:24.482Z,9.00
2019-05-02T12:21:56.660Z,9.17
2019-05-02T12:24:25.986Z,8.90
2019-05-02T12:26:55.239Z,9.63
2019-05-02T12:29:24.452Z,8.60
2019-05-02T12:31:56.367Z,9.03
2019-05-02T12:34:26.063Z,8.20
2019-05-02T12:36:55.294Z,8.03
2019-05-02T12:39:24.514Z,7.33
2019-05-02T12:41:54.503Z,7.87
2019-05-02T12:44:29.219Z,7.30
2019-05-02T12:47:02.494Z,8.27
2019-05-02T12:49:32.470Z,7.60
2019-05-02T12:52:01.900Z,7.20
2019-05-02T12:54:32.545Z,6.73
2019-05-02T12:57:02.190Z,7.30
2019-05-02T12:59:32.220Z,6.93
2019-05-02T13:02:03.500Z,6.63
2019-05-02T13:04:32.740Z,6.40
2019-05-02T13:07:02.257Z,6.40
2019-05-02T13:09:32.550Z,6.60
2019-05-02T13:12:18.557Z,6.40
2019-05-02T13:14:49.067Z,5.87
2019-05-02T13:17:18.666Z,6.37
2019-05-02T13:19:56.217Z,6.73
2019-05-02T13:22:32.553Z,5.90
2019-05-02T13:25:10.471Z,5.97
2019-05-02T13:27:47.534Z,5.92
2019-05-02T13:30:24.508Z,6.00
2019-05-02T13:32:58.012Z,6.23
2019-05-02T13:35:48.858Z,5.63
2019-05-02T13:38:22.277Z,6.17
2019-05-02T13:40:52.051Z,5.90
2019-05-02T13:43:26.117Z,5.30
2019-05-02T13:46:17.587Z,5.93
2019-05-02T13:48:48.282Z,5.50
2019-05-02T13:51:17.504Z,5.20
2019-05-02T13:53:58.512Z,5.80
2019-05-02T13:56:46.670Z,5.70
2019-05-02T13:59:17.249Z,6.00
2019-05-02T14:01:49.269Z,6.40
2019-05-02T14:04:18.536Z,5.67
2019-05-02T14:06:47.763Z,6.50
2019-05-02T14:09:23.712Z,6.53
2019-05-02T14:12:01.953Z,6.10
2019-05-02T14:14:32.631Z,6.40
2019-05-02T14:17:03.137Z,5.73
2019-05-02T14:19:34.735Z,5.97
2019-05-02T14:22:06.005Z,6.47
2019-05-02T14:24:35.247Z,6.00
2019-05-02T14:27:07.213Z,6.00
2019-05-02T14:29:35.448Z,6.73
2019-05-02T14:32:19.704Z,6.63
2019-05-02T14:34:44.598Z,6.47
2019-05-02T14:37:13.821Z,6.70
2019-05-02T14:39:46.415Z,6.30
2019-05-02T14:42:22.104Z,6.10
2019-05-02T14:45:04.079Z,6.30
2019-05-02T14:47:22.279Z,6.50
2019-05-02T14:49:52.165Z,6.37
2019-05-02T14:52:22.159Z,6.00
2019-05-02T14:54:52.558Z,6.00
2019-05-02T14:57:27.043Z,6.17
2019-05-02T14:59:59.200Z,6.30
2019-05-02T15:02:47.200Z,5.57
2019-05-02T15:05:19.183Z,6.07
2019-05-02T15:07:46.785Z,5.20
2019-05-02T15:10:17.711Z,5.33
2019-05-02T15:12:53.484Z,5.37
2019-05-02T15:15:17.923Z,5.43
2019-05-02T15:17:47.174Z,4.67
2019-05-02T15:20:17.916Z,5.50
2019-05-02T15:22:47.146Z,4.70
2019-05-02T15:25:17.970Z,5.37
2019-05-02T15:27:49.904Z,5.30
2019-05-02T15:30:24.002Z,5.57
2019-05-02T15:33:02.930Z,5.83
2019-05-02T15:35:43.527Z,5.40
2019-05-02T15:38:20.822Z,5.50
2019-05-02T15:40:50.025Z,5.55
2019-05-02T15:43:16.061Z,5.40
2019-05-02T15:45:45.522Z,5.27
2019-05-02T15:48:22.788Z,5.30
2019-05-02T15:50:50.105Z,5.77
2019-05-02T15:53:25.463Z,5.47
2019-05-02T15:55:54.740Z,5.80
2019-05-02T15:58:27.801Z,6.03
2019-05-02T16:01:19.751Z,5.90
2019-05-02T16:03:52.375Z,5.80
2019-05-02T16:06:28.261Z,6.27
2019-05-02T16:08:52.630Z,5.67
2019-05-02T16:11:23.007Z,6.40
2019-05-02T16:13:55.853Z,6.20
2019-05-02T16:16:24.027Z,5.77
2019-05-02T16:18:54.133Z,6.03
2019-05-02T16:21:32.145Z,6.17
2019-05-02T16:24:20.006Z,6.30
2019-05-02T16:26:52.746Z,6.27
2019-05-02T16:29:29.189Z,6.07
2019-05-02T16:32:30.910Z,6.43
2019-05-02T16:35:13.556Z,6.50
2019-05-02T16:37:38.716Z,6.10
2019-05-02T16:40:12.012Z,6.60
2019-05-02T16:42:41.936Z,6.30
2019-05-02T16:45:11.878Z,6.80
2019-05-02T16:47:42.298Z,6.90
2019-05-02T16:50:12.304Z,6.23
2019-05-02T16:52:43.641Z,6.67
2019-05-02T16:55:20.994Z,6.70
2019-05-02T16:57:46.618Z,6.43
2019-05-02T17:00:19.950Z,6.03
2019-05-02T17:02:49.182Z,6.87
2019-05-02T17:05:18.515Z,7.10
2019-05-02T17:08:18.700Z,6.87
2019-05-02T17:10:57.014Z,6.93
2019-05-02T17:13:27.382Z,6.70
2019-05-02T17:15:57.911Z,7.10
2019-05-02T17:18:27.997Z,7.00
2019-05-02T17:20:57.232Z,7.13
2019-05-02T17:23:28.548Z,7.07
2019-05-02T17:25:58.823Z,7.13
2019-05-02T17:28:28.079Z,7.37
2019-05-02T17:30:57.320Z,6.80
2019-05-02T17:33:26.581Z,7.40
2019-05-02T17:35:55.803Z,6.93
2019-05-02T17:38:29.212Z,6.87
2019-05-02T17:41:03.691Z,7.30
2019-05-02T17:43:29.994Z,6.97
2019-05-02T17:45:59.211Z,7.00
2019-05-02T17:48:29.392Z,7.70
2019-05-02T17:51:18.070Z,7.63
2019-05-02T17:53:49.703Z,8.37
2019-05-02T17:56:20.550Z,7.73
2019-05-02T17:58:54.299Z,7.70
2019-05-02T18:01:33.380Z,6.27
2019-05-02T18:03:59.518Z,7.20
2019-05-02T18:06:33.001Z,6.37
2019-05-02T18:09:04.157Z,6.73
2019-05-02T18:11:36.773Z,6.80
2019-05-02T18:14:18.576Z,6.73
2019-05-02T18:16:39.205Z,7.17
2019-05-02T18:19:08.042Z,7.40
2019-05-02T18:21:37.274Z,6.27
2019-05-02T18:24:06.567Z,6.57
2019-05-02T18:26:37.522Z,7.10
2019-05-02T18:29:07.166Z,6.97
2019-05-02T18:31:39.699Z,7.00
2019-05-02T18:34:12.544Z,6.87
2019-05-02T18:36:41.745Z,6.73
2019-05-02T18:39:12.885Z,7.60
2019-05-02T18:41:46.375Z,7.10
2019-05-02T18:44:17.095Z,6.97
2019-05-02T18:46:45.561Z,6.40
2019-05-02T18:49:17.130Z,6.43
2019-05-02T18:51:48.386Z,7.00
2019-05-02T18:54:18.120Z,7.00
2019-05-02T18:56:51.131Z,7.57
2019-05-02T18:59:19.743Z,7.47
2019-05-02T19:01:52.645Z,8.63
2019-05-02T19:04:22.077Z,7.90
2019-05-02T19:06:52.340Z,12.23
2019-05-02T19:09:27.187Z,9.43
2019-05-02T19:12:04.487Z,8.13
2019-05-02T19:14:25.981Z,13.57
2019-05-02T19:16:58.077Z,10.03
2019-05-02T19:19:27.452Z,9.10
2019-05-02T19:21:56.697Z,9.60
2019-05-02T19:24:27.526Z,8.40
2019-05-02T19:26:57.483Z,8.63
2019-05-02T19:29:28.750Z,13.50
2019-05-02T19:31:58.582Z,12.20
2019-05-02T19:34:32.185Z,9.70
2019-05-02T19:37:02.944Z,10.27
2019-05-02T19:39:33.599Z,11.67
2019-05-02T19:42:06.218Z,12.20
2019-05-02T19:44:35.500Z,9.30
2019-05-02T19:47:08.305Z,8.10
2019-05-02T19:49:36.054Z,7.53
2019-05-02T19:52:07.211Z,7.20
2019-05-02T19:54:39.542Z,8.13
2019-05-02T19:57:07.742Z,7.90
2019-05-02T19:59:37.069Z,7.40
2019-05-02T20:02:06.410Z,6.60
2019-05-02T20:04:37.812Z,5.60
2019-05-02T20:07:06.893Z,5.20
2019-05-02T20:09:38.130Z,4.70
2019-05-02T20:12:10.539Z,3.93
2019-05-02T20:14:43.619Z,3.40
2019-05-02T20:17:14.947Z,3.43
2019-05-02T20:19:45.730Z,3.00
2019-05-02T20:22:17.084Z,3.10
2019-05-02T20:24:58.377Z,2.90
2019-05-02T20:27:27.760Z,3.40
2019-05-02T20:29:58.310Z,5.90
2019-05-02T20:32:27.570Z,9.77
2019-05-02T20:34:57.109Z,10.80
2019-05-02T20:37:26.357Z,11.63
2019-05-02T20:39:56.725Z,11.90
2019-05-02T20:42:27.716Z,13.37
2019-05-02T20:44:56.933Z,12.63
2019-05-02T20:47:29.769Z,13.27
2019-05-02T20:50:02.319Z,14.70
2019-05-02T20:52:32.388Z,15.13
2019-05-02T20:55:02.103Z,14.53
2019-05-02T20:57:31.816Z,15.40
2019-05-02T21:00:03.006Z,13.50
2019-05-02T21:02:32.243Z,12.17
2019-05-02T21:05:02.771Z,13.17
2019-05-02T21:07:48.742Z,13.77
2019-05-02T21:10:37.508Z,13.93
2019-05-02T21:13:07.397Z,13.10
2019-05-02T21:15:36.612Z,13.83
2019-05-02T21:18:06.335Z,13.73
2019-05-02T21:20:35.898Z,14.20
2019-05-02T21:23:05.404Z,13.07
2019-05-02T21:25:34.634Z,13.20
2019-05-02T21:28:05.288Z,12.77
2019-05-02T21:30:34.812Z,12.50
2019-05-02T21:33:04.388Z,12.67
2019-05-02T21:35:33.633Z,12.70
2019-05-02T21:38:04.637Z,12.63
2019-05-02T21:40:34.192Z,12.77
2019-05-02T21:43:03.718Z,13.50
2019-05-02T21:45:32.951Z,13.40
2019-05-02T21:48:02.829Z,13.93
2019-05-02T21:50:38.683Z,12.63
2019-05-02T21:53:25.640Z,13.50
2019-05-02T21:56:23.024Z,12.43
2019-05-02T21:59:08.598Z,13.30
2019-05-02T22:01:47.422Z,13.80
2019-05-02T22:04:17.241Z,12.60
2019-05-02T22:06:46.907Z,12.93
2019-05-02T22:09:16.152Z,11.23
2019-05-02T22:11:47.813Z,11.97
2019-05-02T22:14:17.051Z,10.63
2019-05-02T22:16:46.316Z,9.37
2019-05-02T22:19:15.623Z,8.47
2019-05-02T22:21:44.879Z,8.30
2019-05-02T22:24:14.583Z,8.07
2019-05-02T22:26:43.835Z,8.80
2019-05-02T22:29:13.095Z,8.70
2019-05-02T22:31:43.001Z,9.10
2019-05-02T22:34:13.163Z,8.70
2019-05-02T22:36:42.489Z,8.70
2019-05-02T22:39:29.350Z,9.17
2019-05-02T22:41:58.567Z,7.93
2019-05-02T22:44:32.347Z,9.33
2019-05-02T22:47:01.359Z,10.00
2019-05-02T22:49:31.819Z,10.10
2019-05-02T22:52:01.274Z,10.87
2019-05-02T22:54:33.608Z,10.87
2019-05-02T22:57:02.552Z,11.60
2019-05-02T22:59:32.104Z,12.27
2019-05-02T23:02:02.381Z,13.07
2019-05-02T23:04:32.695Z,13.87
2019-05-02T23:07:02.413Z,13.67
2019-05-02T23:09:32.010Z,13.97
2019-05-02T23:12:02.816Z,15.37
2019-05-02T23:14:32.591Z,16.33
2019-05-02T23:17:03.102Z,16.17
2019-05-02T23:19:32.947Z,16.37
2019-05-02T23:22:02.967Z,16.27
2019-05-02T23:24:54.314Z,18.27
2019-05-02T23:27:51.875Z,18.13
2019-05-02T23:30:23.743Z,18.00
2019-05-02T23:32:53.036Z,18.97
2019-05-02T23:35:22.263Z,18.43
2019-05-02T23:37:52.983Z,19.13
2019-05-02T23:40:27.653Z,20.00
2019-05-02T23:42:59.601Z,20.80
2019-05-02T23:45:28.836Z,20.53
2019-05-02T23:47:58.076Z,19.30
2019-05-02T23:50:30.902Z,20.77
2019-05-02T23:53:02.168Z,21.00
2019-05-02T23:55:32.468Z,20.10
2019-05-02T23:58:02.950Z,20.43
